sensor_id;sensor_type;location;lat;lon;timestamp;pressure;altitude;pressure_sealevel;temperature;humidity
11808;BME280;5961;42.640;23.380;2023-02-14T00:01:15;95391.47;;;3.47;77.49
11808;BME280;5961;42.640;23.380;2023-02-14T00:03:42;95395.94;;;3.47;77.04
11808;BME280;5961;42.640;23.380;2023-02-14T00:06:11;95410.91;;;3.46;77.44
11808;BME280;5961;42.640;23.380;2023-02-14T00:08:38;95403.53;;;3.43;77.67
11808;BME280;5961;42.640;23.380;2023-02-14T00:11:06;95400.91;;;3.43;77.68
11808;BME280;5961;42.640;23.380;2023-02-14T00:13:33;95397.47;;;3.38;77.92
11808;BME280;5961;42.640;23.380;2023-02-14T00:16:02;95397.75;;;3.41;77.75
11808;BME280;5961;42.640;23.380;2023-02-14T00:18:28;95403.78;;;3.42;77.90
11808;BME280;5961;42.640;23.380;2023-02-14T00:21:08;95403.22;;;3.35;77.66
11808;BME280;5961;42.640;23.380;2023-02-14T00:23:35;95399.28;;;3.32;78.48
11808;BME280;5961;42.640;23.380;2023-02-14T00:26:01;95409.78;;;3.32;77.92
11808;BME280;5961;42.640;23.380;2023-02-14T00:28:28;95403.97;;;3.30;77.81
11808;BME280;5961;42.640;23.380;2023-02-14T00:30:55;95395.06;;;3.31;78.15
11808;BME280;5961;42.640;23.380;2023-02-14T00:33:23;95392.94;;;3.28;78.71
11808;BME280;5961;42.640;23.380;2023-02-14T00:35:50;95402.13;;;3.30;78.45
11808;BME280;5961;42.640;23.380;2023-02-14T00:38:17;95408.22;;;3.36;78.43
11808;BME280;5961;42.640;23.380;2023-02-14T00:40:43;95384.28;;;3.32;78.61
11808;BME280;5961;42.640;23.380;2023-02-14T00:43:10;95414.47;;;3.30;78.83
11808;BME280;5961;42.640;23.380;2023-02-14T00:45:37;95372.94;;;3.22;78.95
11808;BME280;5961;42.640;23.380;2023-02-14T00:48:04;95393.16;;;3.26;79.14
11808;BME280;5961;42.640;23.380;2023-02-14T00:50:32;95418.38;;;3.22;79.60
11808;BME280;5961;42.640;23.380;2023-02-14T00:52:58;95377.06;;;3.13;79.50
11808;BME280;5961;42.640;23.380;2023-02-14T00:55:25;95395.97;;;3.10;79.72
11808;BME280;5961;42.640;23.380;2023-02-14T00:57:52;95363.91;;;3.08;80.00
11808;BME280;5961;42.640;23.380;2023-02-14T01:00:19;95398.06;;;3.13;79.78
11808;BME280;5961;42.640;23.380;2023-02-14T01:02:46;95379.97;;;3.16;79.73
11808;BME280;5961;42.640;23.380;2023-02-14T01:05:12;95362.13;;;3.18;79.09
11808;BME280;5961;42.640;23.380;2023-02-14T01:07:40;95355.03;;;3.14;79.74
11808;BME280;5961;42.640;23.380;2023-02-14T01:10:07;95368.69;;;3.16;79.42
11808;BME280;5961;42.640;23.380;2023-02-14T01:12:34;95369.97;;;3.13;79.30
11808;BME280;5961;42.640;23.380;2023-02-14T01:15:01;95377.56;;;3.10;79.17
11808;BME280;5961;42.640;23.380;2023-02-14T01:17:27;95362.84;;;3.09;79.34
11808;BME280;5961;42.640;23.380;2023-02-14T01:19:54;95357.59;;;3.09;79.71
11808;BME280;5961;42.640;23.380;2023-02-14T01:22:21;95369.16;;;3.08;79.71
11808;BME280;5961;42.640;23.380;2023-02-14T01:24:49;95358.16;;;3.11;79.65
11808;BME280;5961;42.640;23.380;2023-02-14T01:27:16;95382.28;;;3.08;79.54
11808;BME280;5961;42.640;23.380;2023-02-14T01:29:42;95378.91;;;3.12;79.38
11808;BME280;5961;42.640;23.380;2023-02-14T01:32:09;95356.03;;;3.08;79.77
11808;BME280;5961;42.640;23.380;2023-02-14T01:34:36;95394.81;;;2.96;79.44
11808;BME280;5961;42.640;23.380;2023-02-14T01:37:02;95351.22;;;3.00;79.28
11808;BME280;5961;42.640;23.380;2023-02-14T01:39:29;95337.09;;;3.06;79.42
11808;BME280;5961;42.640;23.380;2023-02-14T01:41:57;95331.84;;;3.06;79.97
11808;BME280;5961;42.640;23.380;2023-02-14T01:45:00;95336.56;;;3.09;79.15
11808;BME280;5961;42.640;23.380;2023-02-14T01:47:29;95356.78;;;3.08;79.29
11808;BME280;5961;42.640;23.380;2023-02-14T01:50:00;95325.53;;;3.07;79.12
11808;BME280;5961;42.640;23.380;2023-02-14T01:52:31;95304.50;;;3.02;79.26
11808;BME280;5961;42.640;23.380;2023-02-14T01:55:02;95320.03;;;3.08;79.00
11808;BME280;5961;42.640;23.380;2023-02-14T01:57:35;95314.25;;;3.06;78.56
11808;BME280;5961;42.640;23.380;2023-02-14T02:00:04;95307.16;;;3.07;78.82
11808;BME280;5961;42.640;23.380;2023-02-14T02:02:49;95307.66;;;3.04;78.95
11808;BME280;5961;42.640;23.380;2023-02-14T02:05:17;95313.94;;;2.98;78.83
11808;BME280;5961;42.640;23.380;2023-02-14T02:07:48;95343.41;;;3.05;79.07
11808;BME280;5961;42.640;23.380;2023-02-14T02:10:16;95331.19;;;2.89;78.99
11808;BME280;5961;42.640;23.380;2023-02-14T02:12:44;95328.09;;;2.97;79.19
11808;BME280;5961;42.640;23.380;2023-02-14T02:15:11;95323.66;;;3.02;79.04
11808;BME280;5961;42.640;23.380;2023-02-14T02:17:46;95343.63;;;2.98;79.18
11808;BME280;5961;42.640;23.380;2023-02-14T02:20:50;95319.72;;;3.00;79.24
11808;BME280;5961;42.640;23.380;2023-02-14T02:26:37;95301.03;;;2.96;79.50
11808;BME280;5961;42.640;23.380;2023-02-14T02:29:55;95301.59;;;2.98;79.56
11808;BME280;5961;42.640;23.380;2023-02-14T02:35:53;95268.19;;;2.89;79.00
11808;BME280;5961;42.640;23.380;2023-02-14T02:38:40;95311.53;;;2.96;79.63
11808;BME280;5961;42.640;23.380;2023-02-14T02:41:17;95287.66;;;2.93;78.73
11808;BME280;5961;42.640;23.380;2023-02-14T02:43:54;95296.59;;;2.97;78.85
11808;BME280;5961;42.640;23.380;2023-02-14T02:46:36;95275.56;;;2.97;79.34
11808;BME280;5961;42.640;23.380;2023-02-14T02:49:22;95291.03;;;2.93;79.12
11808;BME280;5961;42.640;23.380;2023-02-14T02:52:14;95261.34;;;2.88;79.27
11808;BME280;5961;42.640;23.380;2023-02-14T02:55:05;95254.28;;;2.93;79.26
11808;BME280;5961;42.640;23.380;2023-02-14T02:57:37;95294.50;;;2.99;78.57
11808;BME280;5961;42.640;23.380;2023-02-14T03:00:07;95271.94;;;3.03;78.45
11808;BME280;5961;42.640;23.380;2023-02-14T03:02:38;95279.50;;;2.94;78.74
11808;BME280;5961;42.640;23.380;2023-02-14T03:05:20;95294.50;;;2.99;78.43
11808;BME280;5961;42.640;23.380;2023-02-14T03:07:48;95276.16;;;3.04;78.61
11808;BME280;5961;42.640;23.380;2023-02-14T03:10:17;95287.69;;;3.03;78.28
11808;BME280;5961;42.640;23.380;2023-02-14T03:18:54;95289.25;;;2.99;79.13
11808;BME280;5961;42.640;23.380;2023-02-14T03:21:48;95283.75;;;3.00;79.28
11808;BME280;5961;42.640;23.380;2023-02-14T03:24:24;95291.63;;;3.00;79.56
11808;BME280;5961;42.640;23.380;2023-02-14T03:27:00;95272.50;;;3.05;78.83
11808;BME280;5961;42.640;23.380;2023-02-14T03:29:37;95287.16;;;3.01;78.65
11808;BME280;5961;42.640;23.380;2023-02-14T03:32:13;95245.38;;;2.99;79.04
11808;BME280;5961;42.640;23.380;2023-02-14T03:34:47;95215.84;;;2.72;78.87
11808;BME280;5961;42.640;23.380;2023-02-14T03:37:21;95234.56;;;2.91;78.85
11808;BME280;5961;42.640;23.380;2023-02-14T03:39:58;95251.94;;;2.92;78.96
11808;BME280;5961;42.640;23.380;2023-02-14T03:42:34;95205.50;;;2.55;78.81
11808;BME280;5961;42.640;23.380;2023-02-14T03:45:04;95281.84;;;2.91;78.82
11808;BME280;5961;42.640;23.380;2023-02-14T03:47:35;95273.16;;;2.90;78.80
11808;BME280;5961;42.640;23.380;2023-02-14T03:50:06;95267.91;;;2.90;78.78
11808;BME280;5961;42.640;23.380;2023-02-14T03:52:35;95260.31;;;2.94;78.85
11808;BME280;5961;42.640;23.380;2023-02-14T03:55:06;95231.44;;;2.89;78.55
11808;BME280;5961;42.640;23.380;2023-02-14T03:57:41;95243.47;;;2.85;78.57
11808;BME280;5961;42.640;23.380;2023-02-14T04:00:13;95248.19;;;2.83;79.11
11808;BME280;5961;42.640;23.380;2023-02-14T04:02:42;95236.91;;;2.82;78.85
11808;BME280;5961;42.640;23.380;2023-02-14T04:05:15;95246.59;;;2.76;78.87
11808;BME280;5961;42.640;23.380;2023-02-14T04:07:44;95238.72;;;2.76;78.78
11808;BME280;5961;42.640;23.380;2023-02-14T04:10:13;95200.09;;;2.72;79.00
11808;BME280;5961;42.640;23.380;2023-02-14T04:12:40;95207.72;;;2.73;79.18
11808;BME280;5961;42.640;23.380;2023-02-14T04:15:07;95242.38;;;2.75;79.02
11808;BME280;5961;42.640;23.380;2023-02-14T04:17:34;95216.09;;;2.70;79.19
11808;BME280;5961;42.640;23.380;2023-02-14T04:20:19;95212.94;;;2.68;79.03
11808;BME280;5961;42.640;23.380;2023-02-14T04:22:45;95172.81;;;2.31;79.52
11808;BME280;5961;42.640;23.380;2023-02-14T04:25:14;95232.34;;;2.67;79.47
11808;BME280;5961;42.640;23.380;2023-02-14T04:27:40;95198.22;;;2.62;79.09
11808;BME280;5961;42.640;23.380;2023-02-14T04:30:08;95218.22;;;2.73;78.77
11808;BME280;5961;42.640;23.380;2023-02-14T04:32:37;95194.09;;;2.76;78.59
11808;BME280;5961;42.640;23.380;2023-02-14T04:35:05;95227.09;;;2.62;78.95
11808;BME280;5961;42.640;23.380;2023-02-14T04:37:32;95220.81;;;2.68;78.95
11808;BME280;5961;42.640;23.380;2023-02-14T04:39:58;95221.34;;;2.70;79.17
11808;BME280;5961;42.640;23.380;2023-02-14T04:42:26;95221.34;;;2.70;78.62
11808;BME280;5961;42.640;23.380;2023-02-14T04:44:53;95202.13;;;2.60;78.89
11808;BME280;5961;42.640;23.380;2023-02-14T04:47:20;95209.25;;;2.64;78.46
11808;BME280;5961;42.640;23.380;2023-02-14T04:49:47;95216.59;;;2.62;78.86
11808;BME280;5961;42.640;23.380;2023-02-14T04:52:14;95204.50;;;2.61;78.38
11808;BME280;5961;42.640;23.380;2023-02-14T04:54:40;95211.84;;;2.59;78.64
11808;BME280;5961;42.640;23.380;2023-02-14T04:57:07;95215.50;;;2.58;78.68
11808;BME280;5961;42.640;23.380;2023-02-14T04:59:35;95208.16;;;2.60;78.50
11808;BME280;5961;42.640;23.380;2023-02-14T05:02:02;95200.56;;;2.64;78.45
11808;BME280;5961;42.640;23.380;2023-02-14T05:04:28;95201.09;;;2.66;78.33
11808;BME280;5961;42.640;23.380;2023-02-14T05:06:55;95220.53;;;2.65;78.26
11808;BME280;5961;42.640;23.380;2023-02-14T05:09:22;95220.53;;;2.65;78.68
11808;BME280;5961;42.640;23.380;2023-02-14T05:11:49;95192.47;;;2.70;78.27
11808;BME280;5961;42.640;23.380;2023-02-14T05:14:15;95202.69;;;2.67;78.05
11808;BME280;5961;42.640;23.380;2023-02-14T05:16:43;95194.06;;;2.71;78.36
11808;BME280;5961;42.640;23.380;2023-02-14T05:19:10;95193.28;;;2.71;77.99
11808;BME280;5961;42.640;23.380;2023-02-14T05:21:37;95200.34;;;2.70;77.70
11808;BME280;5961;42.640;23.380;2023-02-14T05:24:03;95194.56;;;2.68;77.73
11808;BME280;5961;42.640;23.380;2023-02-14T05:26:30;95191.41;;;2.66;77.45
11808;BME280;5961;42.640;23.380;2023-02-14T05:28:58;95195.34;;;2.69;77.76
11808;BME280;5961;42.640;23.380;2023-02-14T05:31:24;95201.38;;;2.69;77.72
11808;BME280;5961;42.640;23.380;2023-02-14T05:33:52;95231.81;;;2.65;77.81
11808;BME280;5961;42.640;23.380;2023-02-14T05:36:20;95217.13;;;2.69;77.92
11808;BME280;5961;42.640;23.380;2023-02-14T05:38:47;95195.09;;;2.65;77.74
11808;BME280;5961;42.640;23.380;2023-02-14T05:41:13;95227.63;;;2.69;77.94
11808;BME280;5961;42.640;23.380;2023-02-14T05:43:40;95207.66;;;2.63;77.79
11808;BME280;5961;42.640;23.380;2023-02-14T05:46:07;95203.47;;;2.67;77.82
11808;BME280;5961;42.640;23.380;2023-02-14T05:48:33;95217.63;;;2.66;78.07
11808;BME280;5961;42.640;23.380;2023-02-14T05:51:04;95207.41;;;2.65;78.65
11808;BME280;5961;42.640;23.380;2023-02-14T05:53:31;95184.06;;;2.68;78.24
11808;BME280;5961;42.640;23.380;2023-02-14T05:55:57;95211.38;;;2.72;78.66
11808;BME280;5961;42.640;23.380;2023-02-14T05:58:24;95208.72;;;2.67;78.14
11808;BME280;5961;42.640;23.380;2023-02-14T06:00:51;95199.03;;;2.73;78.04
11808;BME280;5961;42.640;23.380;2023-02-14T06:03:18;95179.63;;;2.74;78.52
11808;BME280;5961;42.640;23.380;2023-02-14T06:05:44;95216.63;;;2.72;78.81
11808;BME280;5961;42.640;23.380;2023-02-14T06:08:12;95164.63;;;2.64;78.74
11808;BME280;5961;42.640;23.380;2023-02-14T06:10:39;95212.97;;;2.73;79.00
11808;BME280;5961;42.640;23.380;2023-02-14T06:13:06;95201.66;;;2.73;78.57
11808;BME280;5961;42.640;23.380;2023-02-14T06:15:33;95194.84;;;2.72;78.36
11808;BME280;5961;42.640;23.380;2023-02-14T06:18:01;95195.69;;;2.83;78.10
11808;BME280;5961;42.640;23.380;2023-02-14T06:20:27;95199.34;;;2.82;78.35
11808;BME280;5961;42.640;23.380;2023-02-14T06:22:54;95216.44;;;2.84;78.06
11808;BME280;5961;42.640;23.380;2023-02-14T06:25:23;95201.50;;;2.90;77.94
11808;BME280;5961;42.640;23.380;2023-02-14T06:27:50;95214.38;;;2.91;77.89
11808;BME280;5961;42.640;23.380;2023-02-14T06:30:17;95197.81;;;2.91;77.60
11808;BME280;5961;42.640;23.380;2023-02-14T06:32:43;95175.66;;;2.66;77.04
11808;BME280;5961;42.640;23.380;2023-02-14T06:35:10;95200.22;;;3.02;77.66
11808;BME280;5961;42.640;23.380;2023-02-14T06:37:38;95209.47;;;3.05;77.60
11808;BME280;5961;42.640;23.380;2023-02-14T06:40:07;95196.31;;;3.05;77.67
11808;BME280;5961;42.640;23.380;2023-02-14T06:42:35;95205.25;;;3.09;77.38
11808;BME280;5961;42.640;23.380;2023-02-14T06:45:02;95217.34;;;3.05;77.99
11808;BME280;5961;42.640;23.380;2023-02-14T06:47:29;95196.34;;;3.10;77.76
11808;BME280;5961;42.640;23.380;2023-02-14T06:49:56;95192.13;;;3.09;78.36
11808;BME280;5961;42.640;23.380;2023-02-14T06:52:24;95132.63;;;2.72;77.66
11808;BME280;5961;42.640;23.380;2023-02-14T06:54:51;95189.78;;;3.17;78.11
11808;BME280;5961;42.640;23.380;2023-02-14T06:57:17;95252.59;;;3.19;77.31
11808;BME280;5961;42.640;23.380;2023-02-14T06:59:45;95186.34;;;3.12;77.79
11808;BME280;5961;42.640;23.380;2023-02-14T07:02:12;95191.13;;;3.20;78.00
11808;BME280;5961;42.640;23.380;2023-02-14T07:04:39;95197.94;;;3.21;77.92
11808;BME280;5961;42.640;23.380;2023-02-14T07:07:05;95200.06;;;3.24;78.03
11808;BME280;5961;42.640;23.380;2023-02-14T07:09:32;95190.88;;;3.21;78.51
11808;BME280;5961;42.640;23.380;2023-02-14T07:11:59;95182.47;;;3.24;78.20
11808;BME280;5961;42.640;23.380;2023-02-14T07:14:25;95202.97;;;3.27;78.40
11808;BME280;5961;42.640;23.380;2023-02-14T07:16:54;95189.59;;;3.29;78.51
11808;BME280;5961;42.640;23.380;2023-02-14T07:19:20;95183.78;;;3.27;78.89
11808;BME280;5961;42.640;23.380;2023-02-14T07:21:47;95178.28;;;3.28;79.68
11808;BME280;5961;42.640;23.380;2023-02-14T07:24:14;95179.59;;;3.31;79.61
11808;BME280;5961;42.640;23.380;2023-02-14T07:26:40;95194.31;;;3.32;80.08
11808;BME280;5961;42.640;23.380;2023-02-14T07:29:07;95218.50;;;3.34;80.74
11808;BME280;5961;42.640;23.380;2023-02-14T07:31:33;95198.00;;;3.31;80.63
11808;BME280;5961;42.640;23.380;2023-02-14T07:34:02;95117.72;;;2.83;81.08
11808;BME280;5961;42.640;23.380;2023-02-14T07:36:28;95188.56;;;3.35;81.57
11808;BME280;5961;42.640;23.380;2023-02-14T07:38:55;95175.16;;;3.42;81.28
11808;BME280;5961;42.640;23.380;2023-02-14T07:41:22;95200.91;;;3.40;82.28
11808;BME280;5961;42.640;23.380;2023-02-14T07:43:49;95159.91;;;3.33;82.65
11808;BME280;5961;42.640;23.380;2023-02-14T07:46:15;95214.00;;;3.29;83.39
11808;BME280;5961;42.640;23.380;2023-02-14T07:48:42;95158.03;;;3.19;83.80
11808;BME280;5961;42.640;23.380;2023-02-14T07:51:10;95197.72;;;3.27;84.84
11808;BME280;5961;42.640;23.380;2023-02-14T07:53:37;95198.00;;;3.26;85.50
11808;BME280;5961;42.640;23.380;2023-02-14T07:56:04;95241.50;;;3.12;86.35
11808;BME280;5961;42.640;23.380;2023-02-14T07:58:31;95215.53;;;3.20;85.89
11808;BME280;5961;42.640;23.380;2023-02-14T08:00:58;95232.09;;;3.21;86.54
11808;BME280;5961;42.640;23.380;2023-02-14T08:03:25;95218.16;;;3.20;86.79
11808;BME280;5961;42.640;23.380;2023-02-14T08:05:51;95232.63;;;3.18;87.29
11808;BME280;5961;42.640;23.380;2023-02-14T08:08:25;95207.41;;;3.17;87.33
11808;BME280;5961;42.640;23.380;2023-02-14T08:10:52;95215.47;;;3.05;87.23
11808;BME280;5961;42.640;23.380;2023-02-14T08:13:18;95242.28;;;3.07;87.39
11808;BME280;5961;42.640;23.380;2023-02-14T08:15:45;95214.38;;;2.96;88.93
11808;BME280;5961;42.640;23.380;2023-02-14T08:18:32;95247.56;;;3.12;88.64
11808;BME280;5961;42.640;23.380;2023-02-14T08:20:59;95212.59;;;3.02;88.66
11808;BME280;5961;42.640;23.380;2023-02-14T08:23:27;95254.63;;;3.02;89.18
11808;BME280;5961;42.640;23.380;2023-02-14T08:25:54;95221.78;;;3.04;88.72
11808;BME280;5961;42.640;23.380;2023-02-14T08:28:22;95236.75;;;2.99;88.83
11808;BME280;5961;42.640;23.380;2023-02-14T08:30:49;95242.53;;;3.06;88.59
11808;BME280;5961;42.640;23.380;2023-02-14T08:33:16;95282.41;;;2.98;88.31
11808;BME280;5961;42.640;23.380;2023-02-14T08:35:43;95228.38;;;3.07;88.37
11808;BME280;5961;42.640;23.380;2023-02-14T08:38:10;95237.84;;;3.08;88.28
11808;BME280;5961;42.640;23.380;2023-02-14T08:40:38;95179.72;;;2.89;88.55
11808;BME280;5961;42.640;23.380;2023-02-14T08:43:06;95222.09;;;3.13;87.86
11808;BME280;5961;42.640;23.380;2023-02-14T08:45:33;95181.53;;;2.89;88.36
11808;BME280;5961;42.640;23.380;2023-02-14T08:48:01;95239.97;;;3.16;88.50
11808;BME280;5961;42.640;23.380;2023-02-14T08:50:28;95230.78;;;3.18;89.28
11808;BME280;5961;42.640;23.380;2023-02-14T08:52:55;95220.25;;;3.13;88.98
11808;BME280;5961;42.640;23.380;2023-02-14T08:55:22;95234.44;;;3.17;89.41
11808;BME280;5961;42.640;23.380;2023-02-14T08:57:50;95228.44;;;3.22;89.88
11808;BME280;5961;42.640;23.380;2023-02-14T09:00:17;95237.34;;;3.16;89.48
11808;BME280;5961;42.640;23.380;2023-02-14T09:02:44;95253.09;;;3.16;90.14
11808;BME280;5961;42.640;23.380;2023-02-14T09:05:11;95274.34;;;3.09;90.86
11808;BME280;5961;42.640;23.380;2023-02-14T09:07:37;95214.16;;;2.98;91.13
11808;BME280;5961;42.640;23.380;2023-02-14T09:10:05;95247.56;;;3.07;91.50
11808;BME280;5961;42.640;23.380;2023-02-14T09:12:32;95225.75;;;3.07;91.47
11808;BME280;5961;42.640;23.380;2023-02-14T09:15:00;95228.38;;;3.07;91.24
11808;BME280;5961;42.640;23.380;2023-02-14T09:17:27;95230.97;;;3.02;91.41
11808;BME280;5961;42.640;23.380;2023-02-14T09:19:55;95207.34;;;3.07;91.53
11808;BME280;5961;42.640;23.380;2023-02-14T09:22:21;95223.63;;;3.04;91.24
11808;BME280;5961;42.640;23.380;2023-02-14T09:24:48;95195.25;;;3.06;90.61
11808;BME280;5961;42.640;23.380;2023-02-14T09:27:15;95222.59;;;3.10;90.83
11808;BME280;5961;42.640;23.380;2023-02-14T09:29:41;95197.13;;;3.10;90.20
11808;BME280;5961;42.640;23.380;2023-02-14T09:32:09;95218.38;;;3.04;90.48
11808;BME280;5961;42.640;23.380;2023-02-14T09:34:36;95237.28;;;3.01;90.14
11808;BME280;5961;42.640;23.380;2023-02-14T09:37:20;95212.34;;;3.08;90.53
11808;BME280;5961;42.640;23.380;2023-02-14T09:39:47;95225.72;;;3.02;90.14
11808;BME280;5961;42.640;23.380;2023-02-14T09:42:31;95202.53;;;2.89;89.66
11808;BME280;5961;42.640;23.380;2023-02-14T09:45:04;95203.94;;;3.11;89.39
11808;BME280;5961;42.640;23.380;2023-02-14T09:47:35;95160.53;;;2.84;89.92
11808;BME280;5961;42.640;23.380;2023-02-14T09:50:09;95176.88;;;3.01;89.20
11808;BME280;5961;42.640;23.380;2023-02-14T09:52:40;95220.53;;;3.17;88.70
11808;BME280;5961;42.640;23.380;2023-02-14T09:55:12;95226.25;;;3.09;89.30
11808;BME280;5961;42.640;23.380;2023-02-14T09:57:44;95223.13;;;3.12;88.68
11808;BME280;5961;42.640;23.380;2023-02-14T10:00:17;95183.38;;;2.93;88.54
11808;BME280;5961;42.640;23.380;2023-02-14T10:02:57;95181.38;;;3.15;88.31
11808;BME280;5961;42.640;23.380;2023-02-14T10:05:28;95231.06;;;3.17;88.45
11808;BME280;5961;42.640;23.380;2023-02-14T10:07:59;95232.09;;;3.16;88.56
11808;BME280;5961;42.640;23.380;2023-02-14T10:10:34;95208.97;;;3.13;88.02
11808;BME280;5961;42.640;23.380;2023-02-14T10:13:09;95190.81;;;3.11;88.23
11808;BME280;5961;42.640;23.380;2023-02-14T10:15:42;95189.78;;;3.12;88.27
11808;BME280;5961;42.640;23.380;2023-02-14T10:18:13;95179.03;;;3.19;87.59
11808;BME280;5961;42.640;23.380;2023-02-14T10:20:45;95217.66;;;3.23;87.82
11808;BME280;5961;42.640;23.380;2023-02-14T10:23:24;95181.44;;;3.25;87.04
11808;BME280;5961;42.640;23.380;2023-02-14T10:25:56;95171.97;;;3.24;87.84
11808;BME280;5961;42.640;23.380;2023-02-14T10:28:29;95194.53;;;3.20;87.42
11808;BME280;5961;42.640;23.380;2023-02-14T10:31:04;95171.16;;;3.24;87.93
11808;BME280;5961;42.640;23.380;2023-02-14T10:33:41;95151.41;;;3.01;88.21
11808;BME280;5961;42.640;23.380;2023-02-14T10:36:18;95178.00;;;3.20;87.89
11808;BME280;5961;42.640;23.380;2023-02-14T10:38:54;95165.38;;;3.22;86.85
11808;BME280;5961;42.640;23.380;2023-02-14T10:41:30;95146.22;;;3.21;86.83
11808;BME280;5961;42.640;23.380;2023-02-14T10:44:11;95165.09;;;3.13;87.37
11808;BME280;5961;42.640;23.380;2023-02-14T10:46:45;95166.44;;;3.21;87.03
11808;BME280;5961;42.640;23.380;2023-02-14T10:49:30;95164.88;;;3.20;86.98
11808;BME280;5961;42.640;23.380;2023-02-14T10:52:04;95158.56;;;3.26;86.96
11808;BME280;5961;42.640;23.380;2023-02-14T10:54:37;95156.19;;;3.29;86.79
11808;BME280;5961;42.640;23.380;2023-02-14T10:57:08;95155.94;;;3.26;86.50
11808;BME280;5961;42.640;23.380;2023-02-14T10:59:45;95158.06;;;3.29;85.92
11808;BME280;5961;42.640;23.380;2023-02-14T11:02:16;95174.84;;;3.23;86.47
11808;BME280;5961;42.640;23.380;2023-02-14T11:04:45;95160.94;;;3.27;86.10
11808;BME280;5961;42.640;23.380;2023-02-14T11:07:12;95167.22;;;3.21;86.88
11808;BME280;5961;42.640;23.380;2023-02-14T11:09:39;95162.75;;;3.22;86.89
11808;BME280;5961;42.640;23.380;2023-02-14T11:12:07;95186.91;;;3.19;86.59
11808;BME280;5961;42.640;23.380;2023-02-14T11:14:36;95140.59;;;2.93;86.54
11808;BME280;5961;42.640;23.380;2023-02-14T11:17:26;95174.28;;;3.11;86.24
11808;BME280;5961;42.640;23.380;2023-02-14T11:19:57;95171.13;;;3.09;86.17
11808;BME280;5961;42.640;23.380;2023-02-14T11:22:31;95151.41;;;3.11;86.03
11808;BME280;5961;42.640;23.380;2023-02-14T11:25:05;95154.59;;;3.13;85.78
11808;BME280;5961;42.640;23.380;2023-02-14T11:27:32;95179.28;;;3.12;85.13
11808;BME280;5961;42.640;23.380;2023-02-14T11:29:59;95139.88;;;3.07;85.21
11808;BME280;5961;42.640;23.380;2023-02-14T11:32:28;95169.56;;;3.13;85.06
11808;BME280;5961;42.640;23.380;2023-02-14T11:34:59;95135.94;;;3.05;84.66
11808;BME280;5961;42.640;23.380;2023-02-14T11:37:28;95139.03;;;2.92;85.16
11808;BME280;5961;42.640;23.380;2023-02-14T11:39:57;95132.19;;;2.91;84.97
11808;BME280;5961;42.640;23.380;2023-02-14T11:42:41;95171.59;;;2.96;84.49
11808;BME280;5961;42.640;23.380;2023-02-14T11:45:26;95163.97;;;2.94;84.18
11808;BME280;5961;42.640;23.380;2023-02-14T11:48:14;95163.75;;;3.01;84.27
11808;BME280;5961;42.640;23.380;2023-02-14T11:50:43;95152.72;;;2.99;83.55
11808;BME280;5961;42.640;23.380;2023-02-14T11:53:21;95137.75;;;3.04;82.84
11808;BME280;5961;42.640;23.380;2023-02-14T11:55:51;95089.59;;;2.68;83.04
11808;BME280;5961;42.640;23.380;2023-02-14T11:58:28;95114.66;;;3.11;82.58
11808;BME280;5961;42.640;23.380;2023-02-14T12:00:56;95118.63;;;3.14;82.70
11808;BME280;5961;42.640;23.380;2023-02-14T12:03:25;95109.94;;;3.13;82.01
11808;BME280;5961;42.640;23.380;2023-02-14T12:05:55;95054.94;;;2.71;81.25
11808;BME280;5961;42.640;23.380;2023-02-14T12:08:27;95112.84;;;3.22;81.23
11808;BME280;5961;42.640;23.380;2023-02-14T12:11:04;95124.66;;;3.24;80.93
11808;BME280;5961;42.640;23.380;2023-02-14T12:13:31;95104.44;;;3.25;80.77
11808;BME280;5961;42.640;23.380;2023-02-14T12:15:58;95083.94;;;3.27;80.87
11808;BME280;5961;42.640;23.380;2023-02-14T12:18:36;95154.91;;;3.32;81.04
11808;BME280;5961;42.640;23.380;2023-02-14T12:21:16;95121.53;;;3.22;80.94
11808;BME280;5961;42.640;23.380;2023-02-14T12:23:51;95111.03;;;3.27;80.82
11808;BME280;5961;42.640;23.380;2023-02-14T12:26:26;95101.28;;;3.08;81.49
11808;BME280;5961;42.640;23.380;2023-02-14T12:28:58;95122.03;;;3.29;81.70
11808;BME280;5961;42.640;23.380;2023-02-14T12:31:26;95130.75;;;3.35;81.33
11808;BME280;5961;42.640;23.380;2023-02-14T12:33:53;95086.78;;;3.00;81.48
11808;BME280;5961;42.640;23.380;2023-02-14T12:36:32;95108.16;;;3.44;81.15
11808;BME280;5961;42.640;23.380;2023-02-14T12:39:08;95127.59;;;3.43;81.12
11808;BME280;5961;42.640;23.380;2023-02-14T12:41:45;95104.75;;;3.44;80.49
11808;BME280;5961;42.640;23.380;2023-02-14T12:44:21;95095.03;;;3.44;81.08
11808;BME280;5961;42.640;23.380;2023-02-14T12:47:06;95087.91;;;3.45;80.92
11808;BME280;5961;42.640;23.380;2023-02-14T12:50:02;95116.06;;;3.49;80.62
11808;BME280;5961;42.640;23.380;2023-02-14T12:55:43;95086.59;;;3.57;80.89
11808;BME280;5961;42.640;23.380;2023-02-14T12:58:22;95110.25;;;3.57;80.71
11808;BME280;5961;42.640;23.380;2023-02-14T13:01:03;95074.00;;;3.49;81.10
11808;BME280;5961;42.640;23.380;2023-02-14T13:06:33;95088.19;;;3.73;80.41
11808;BME280;5961;42.640;23.380;2023-02-14T13:09:22;95097.91;;;3.73;80.32
11808;BME280;5961;42.640;23.380;2023-02-14T13:12:01;95081.91;;;3.74;80.79
11808;BME280;5961;42.640;23.380;2023-02-14T13:14:47;95100.31;;;3.74;81.12
11808;BME280;5961;42.640;23.380;2023-02-14T13:17:24;95073.72;;;3.66;81.01
11808;BME280;5961;42.640;23.380;2023-02-14T13:20:05;95074.00;;;3.69;81.47
11808;BME280;5961;42.640;23.380;2023-02-14T13:22:40;95076.09;;;3.52;81.68
11808;BME280;5961;42.640;23.380;2023-02-14T13:25:19;95071.38;;;3.64;82.15
11808;BME280;5961;42.640;23.380;2023-02-14T13:27:49;95058.78;;;3.56;82.75
11808;BME280;5961;42.640;23.380;2023-02-14T13:30:21;95081.63;;;3.71;82.87
11808;BME280;5961;42.640;23.380;2023-02-14T13:32:51;95085.56;;;3.73;82.51
11808;BME280;5961;42.640;23.380;2023-02-14T13:35:21;95088.72;;;3.65;82.37
11808;BME280;5961;42.640;23.380;2023-02-14T13:37:50;95109.75;;;3.65;83.00
11808;BME280;5961;42.640;23.380;2023-02-14T13:40:21;95072.66;;;3.72;83.22
11808;BME280;5961;42.640;23.380;2023-02-14T13:42:52;95057.19;;;3.65;83.15
11808;BME280;5961;42.640;23.380;2023-02-14T13:48:29;95066.13;;;3.64;83.97
11808;BME280;5961;42.640;23.380;2023-02-14T13:50:59;95088.97;;;3.64;83.68